Terminal Aerodrome Forecast
Issued by NWS

Home | Current Version | Previous Version | Text Only | Print | Product List | Glossary On
Versions: 1 2 3 4 5 6 7 8 9 10 11 12 13 14 15 16
000
FTUS45 KABQ 211700
TAFLVS
TAF
KLVS 211740Z 2118/2218 19012G18KT P6SM SCT018 BKN030
     FM212000 19014G21KT P6SM VCSH SCT035 BKN070
     FM212100 20014G22KT P6SM VCTS BKN050CB
      TEMPO 2121/2201 VRB16G27KT 5SM SHRA OVC035
     FM220100 18012KT P6SM VCSH BKN060
     FM220500 20008KT P6SM BKN060=

USA.gov is the U.S. government's official web portal to all federal, state and local government web resources and services.